createdAt,value
2023-01-22T00:00:14.276Z,0.17
2023-01-22T00:01:14.283Z,0.16
2023-01-22T00:02:14.307Z,0.17
2023-01-22T00:03:14.304Z,0.19
2023-01-22T00:04:14.321Z,0.17
2023-01-22T00:05:14.328Z,0.16
2023-01-22T00:06:14.339Z,0.14
2023-01-22T00:07:14.345Z,0.13
2023-01-22T00:08:14.384Z,0.15
2023-01-22T00:09:14.358Z,0.13
2023-01-22T00:10:14.370Z,0.13
2023-01-22T00:11:14.377Z,0.13
2023-01-22T00:12:14.381Z,0.14
2023-01-22T00:13:14.389Z,0.14
2023-01-22T00:14:14.447Z,0.15
2023-01-22T00:15:14.416Z,0.16
2023-01-22T00:16:14.437Z,0.16
2023-01-22T00:17:14.432Z,0.14
2023-01-22T00:18:14.434Z,0.13
2023-01-22T00:19:14.444Z,0.13
2023-01-22T00:20:14.462Z,0.13
2023-01-22T00:21:14.534Z,0.14
2023-01-22T00:22:14.472Z,0.13
2023-01-22T00:23:14.489Z,0.14
2023-01-22T00:24:14.499Z,0.15
2023-01-22T00:25:14.500Z,0.14
2023-01-22T00:26:14.504Z,0.13
2023-01-22T00:27:14.514Z,0.11
2023-01-22T00:28:14.520Z,0.11
2023-01-22T00:29:14.529Z,0.12
2023-01-22T00:30:14.563Z,0.13
2023-01-22T00:31:14.662Z,0.12
2023-01-22T00:32:14.679Z,0.12
2023-01-22T00:33:14.564Z,0.13
2023-01-22T00:34:14.574Z,0.11
2023-01-22T00:35:14.582Z,0.14
2023-01-22T00:36:14.593Z,0.13
2023-01-22T00:37:14.599Z,0.14
2023-01-22T00:38:14.612Z,0.14
2023-01-22T00:39:14.619Z,0.13
2023-01-22T00:40:14.647Z,0.09
2023-01-22T00:41:14.645Z,0.11
2023-01-22T00:42:14.652Z,0.11
2023-01-22T00:43:14.659Z,0.11
2023-01-22T00:44:14.672Z,0.11
2023-01-22T00:45:14.674Z,0.12
2023-01-22T00:46:14.726Z,0.13
2023-01-22T00:47:14.689Z,0.12
2023-01-22T00:48:14.697Z,0.11
2023-01-22T00:49:14.706Z,0.14
2023-01-22T00:50:14.778Z,0.12
2023-01-22T00:51:14.886Z,0.10
2023-01-22T00:52:14.737Z,0.09
2023-01-22T00:53:14.738Z,0.09
2023-01-22T00:54:14.750Z,0.09
2023-01-22T00:55:14.748Z,0.09
2023-01-22T00:56:14.779Z,0.09
2023-01-22T00:57:14.774Z,0.10
2023-01-22T00:58:14.790Z,0.10
2023-01-22T00:59:14.811Z,0.10
2023-01-22T01:00:14.909Z,0.10
2023-01-22T01:01:14.806Z,0.11
2023-01-22T01:02:14.858Z,0.10
2023-01-22T01:03:14.824Z,0.13
2023-01-22T01:04:14.831Z,0.12
2023-01-22T01:05:14.836Z,0.14
2023-01-22T01:06:14.843Z,0.14
2023-01-22T01:07:14.850Z,0.14
2023-01-22T01:08:14.857Z,0.16
2023-01-22T01:09:14.869Z,0.15
2023-01-22T01:10:14.909Z,0.18
2023-01-22T01:11:14.896Z,0.16
2023-01-22T01:12:14.908Z,0.16
2023-01-22T01:13:14.921Z,0.16
2023-01-22T01:14:14.923Z,0.14
2023-01-22T01:15:14.937Z,0.11
2023-01-22T01:16:14.986Z,0.11
2023-01-22T01:17:14.949Z,0.10
2023-01-22T01:18:14.956Z,0.12
2023-01-22T01:19:15.085Z,0.12
2023-01-22T01:20:14.990Z,0.14
2023-01-22T01:21:14.978Z,0.14
2023-01-22T01:22:14.993Z,0.11
2023-01-22T01:23:14.999Z,0.10
2023-01-22T01:24:15.000Z,0.11
2023-01-22T01:25:15.010Z,0.10
2023-01-22T01:26:15.016Z,0.11
2023-01-22T01:27:15.035Z,0.10
2023-01-22T01:28:15.035Z,0.11
2023-01-22T01:46:15.572Z,0.15
2023-01-22T01:47:15.221Z,0.16
2023-01-22T01:48:15.235Z,0.15
2023-01-22T01:49:15.241Z,0.14
2023-01-22T01:50:15.527Z,0.16
2023-01-22T01:51:15.286Z,0.15
2023-01-22T01:52:15.274Z,0.13
2023-01-22T01:53:15.284Z,0.12
2023-01-22T01:54:15.291Z,0.13
2023-01-22T01:55:15.303Z,0.12
2023-01-22T01:56:15.312Z,0.10
2023-01-22T01:57:15.324Z,0.09
2023-01-22T01:58:15.332Z,0.09
2023-01-22T01:59:15.341Z,0.11
2023-01-22T02:00:15.539Z,0.10
2023-01-22T02:01:15.357Z,0.09
2023-01-22T02:02:15.433Z,0.09
2023-01-22T02:03:15.372Z,0.10
2023-01-22T02:04:15.375Z,0.11
2023-01-22T02:05:15.382Z,0.10
2023-01-22T02:06:15.392Z,0.11
2023-01-22T02:07:15.398Z,0.12
2023-01-22T02:08:15.407Z,0.13
2023-01-22T02:09:15.413Z,0.14
2023-01-22T02:10:15.634Z,0.13
2023-01-22T02:11:15.428Z,0.13
2023-01-22T02:12:15.433Z,0.13
2023-01-22T02:13:15.439Z,0.14
2023-01-22T02:14:15.466Z,0.16
2023-01-22T02:15:15.465Z,0.17
2023-01-22T02:16:15.520Z,0.20
2023-01-22T02:17:15.476Z,0.20
2023-01-22T02:18:15.490Z,0.18
2023-01-22T02:19:15.489Z,0.17
2023-01-22T02:20:15.578Z,0.19
2023-01-22T02:21:15.509Z,0.20
2023-01-22T02:22:15.533Z,0.21
2023-01-22T02:23:15.528Z,0.20
2023-01-22T02:24:15.539Z,0.19
2023-01-22T02:25:15.546Z,0.17
2023-01-22T02:26:15.559Z,0.14
2023-01-22T02:27:15.602Z,0.13
2023-01-22T02:28:15.578Z,0.11
2023-01-22T02:29:15.589Z,0.11
2023-01-22T02:30:15.730Z,0.12
2023-01-22T02:31:15.668Z,0.12
2023-01-22T02:32:15.619Z,0.14
2023-01-22T02:33:15.747Z,0.13
2023-01-22T02:34:15.642Z,0.14
2023-01-22T02:35:15.663Z,0.12
2023-01-22T02:36:15.664Z,0.13
2023-01-22T02:37:15.671Z,0.14
2023-01-22T02:38:15.681Z,0.15
2023-01-22T02:39:15.695Z,0.16
2023-01-22T02:40:15.958Z,0.15
2023-01-22T02:41:15.708Z,0.16
2023-01-22T02:42:15.715Z,0.18
2023-01-22T02:43:15.720Z,0.18
2023-01-22T02:44:15.760Z,0.16
2023-01-22T02:45:15.742Z,0.16
2023-01-22T02:46:15.749Z,0.18
2023-01-22T02:47:15.756Z,0.15
2023-01-22T02:48:15.760Z,0.16
2023-01-22T02:49:15.772Z,0.17
2023-01-22T02:50:16.009Z,0.18
2023-01-22T02:51:15.840Z,0.19
2023-01-22T02:52:15.807Z,0.18
2023-01-22T02:53:15.809Z,0.21
2023-01-22T02:54:15.833Z,0.23
2023-01-22T02:55:15.831Z,0.25
2023-01-22T02:56:15.844Z,0.23
2023-01-22T02:57:15.854Z,0.21
2023-01-22T02:58:15.866Z,0.19
2023-01-22T02:59:15.867Z,0.19
2023-01-22T03:00:16.113Z,0.19
2023-01-22T03:01:15.951Z,0.18
2023-01-22T03:02:15.936Z,0.16
2023-01-22T03:03:15.911Z,0.19
2023-01-22T03:04:15.921Z,0.20
2023-01-22T03:05:15.934Z,0.23
2023-01-22T03:06:15.952Z,0.24
2023-01-22T03:07:15.949Z,0.24
2023-01-22T03:08:15.961Z,0.24
2023-01-22T03:09:15.980Z,0.24
2023-01-22T03:10:16.214Z,0.24
2023-01-22T03:11:15.993Z,0.24
2023-01-22T03:12:16.004Z,0.23
2023-01-22T03:13:16.018Z,0.25
2023-01-22T03:14:16.018Z,0.24
2023-01-22T03:15:16.033Z,0.22
2023-01-22T03:16:16.107Z,0.24
2023-01-22T03:17:16.053Z,0.24
2023-01-22T03:18:16.067Z,0.24
2023-01-22T03:19:17.041Z,0.23
2023-01-22T03:20:16.281Z,0.24
2023-01-22T03:21:16.082Z,0.24
2023-01-22T03:22:16.118Z,0.24
2023-01-22T03:23:16.101Z,0.27
2023-01-22T03:24:16.114Z,0.28
2023-01-22T03:25:16.123Z,0.30
2023-01-22T03:26:16.122Z,0.27
2023-01-22T03:27:16.130Z,0.28
2023-01-22T03:28:16.142Z,0.26
2023-01-22T03:29:16.154Z,0.26
2023-01-22T03:30:16.447Z,0.25
2023-01-22T03:31:16.325Z,0.25
2023-01-22T03:32:16.251Z,0.24
2023-01-22T03:33:16.204Z,0.25
2023-01-22T03:34:16.216Z,0.23
2023-01-22T03:35:16.228Z,0.24
2023-01-22T03:36:16.235Z,0.26
2023-01-22T03:37:16.250Z,0.26
2023-01-22T03:38:16.242Z,0.26
2023-01-22T03:39:16.249Z,0.24
2023-01-22T03:40:16.526Z,0.25
2023-01-22T03:41:16.289Z,0.25
2023-01-22T03:42:16.293Z,0.25
2023-01-22T03:43:16.299Z,0.26
2023-01-22T03:44:16.295Z,0.28
2023-01-22T03:45:16.306Z,0.28
2023-01-22T03:46:16.370Z,0.29
2023-01-22T03:47:16.330Z,0.29
2023-01-22T03:48:16.335Z,0.31
2023-01-22T03:49:16.350Z,0.30
2023-01-22T03:50:16.655Z,0.30
2023-01-22T03:51:16.447Z,0.29
2023-01-22T03:52:16.375Z,0.25
2023-01-22T03:53:16.390Z,0.23
2023-01-22T03:54:16.400Z,0.25
2023-01-22T03:55:16.408Z,0.27
2023-01-22T03:56:16.430Z,0.28
2023-01-22T03:57:16.429Z,0.30
2023-01-22T03:58:16.438Z,0.28
2023-01-22T03:59:16.439Z,0.31
2023-01-22T04:00:16.846Z,0.30
2023-01-22T04:01:16.550Z,0.31
2023-01-22T04:02:16.544Z,0.32
2023-01-22T04:03:16.480Z,0.32
2023-01-22T04:04:16.491Z,0.31
2023-01-22T04:05:16.509Z,0.30
2023-01-22T04:06:16.506Z,0.29
2023-01-22T04:07:16.525Z,0.29
2023-01-22T04:08:16.534Z,0.27
2023-01-22T04:09:16.548Z,0.30
2023-01-22T04:10:16.875Z,0.29
2023-01-22T04:11:16.558Z,0.27
2023-01-22T04:12:16.568Z,0.27
2023-01-22T04:13:16.577Z,0.25
2023-01-22T04:14:16.576Z,0.26
2023-01-22T04:15:16.591Z,0.25
2023-01-22T04:16:16.651Z,0.28
2023-01-22T04:17:16.614Z,0.29
2023-01-22T04:18:16.620Z,0.29
2023-01-22T04:19:16.627Z,0.29
2023-01-22T04:20:16.885Z,0.28
2023-01-22T04:21:16.657Z,0.27
2023-01-22T04:22:16.665Z,0.26
2023-01-22T04:23:16.675Z,0.28
2023-01-22T04:24:16.691Z,0.28
2023-01-22T04:25:16.697Z,0.29
2023-01-22T04:26:16.703Z,0.29
2023-01-22T04:27:16.717Z,0.30
2023-01-22T04:28:16.750Z,0.29
2023-01-22T04:29:16.732Z,0.31
2023-01-22T04:30:17.071Z,0.31
2023-01-22T04:31:16.851Z,0.33
2023-01-22T04:32:16.766Z,0.33
2023-01-22T04:33:16.778Z,0.32
2023-01-22T04:34:16.789Z,0.32
2023-01-22T04:35:16.796Z,0.32
2023-01-22T04:36:16.806Z,0.33
2023-01-22T04:37:16.817Z,0.31
2023-01-22T04:38:16.824Z,0.31
2023-01-22T04:39:16.838Z,0.31
2023-01-22T04:40:17.169Z,0.31
2023-01-22T04:41:16.851Z,0.31
2023-01-22T04:42:16.866Z,0.32
2023-01-22T04:43:16.871Z,0.34
2023-01-22T04:44:16.895Z,0.36
2023-01-22T04:45:16.893Z,0.37
2023-01-22T04:46:16.981Z,0.35
2023-01-22T04:47:16.907Z,0.38
2023-01-22T04:48:16.923Z,0.36
2023-01-22T04:49:16.933Z,0.39
2023-01-22T04:50:17.234Z,0.38
2023-01-22T04:51:17.079Z,0.38
2023-01-22T04:52:16.956Z,0.34
2023-01-22T04:53:16.974Z,0.35
2023-01-22T04:54:16.980Z,0.35
2023-01-22T04:55:16.984Z,0.34
2023-01-22T04:56:16.990Z,0.34
2023-01-22T04:57:17.001Z,0.33
2023-01-22T04:58:17.013Z,0.36
2023-01-22T04:59:17.022Z,0.37
2023-01-22T05:00:17.344Z,0.36
2023-01-22T05:01:17.066Z,0.34
2023-01-22T05:02:17.105Z,0.33
2023-01-22T05:03:17.063Z,0.34
2023-01-22T05:04:17.080Z,0.35
2023-01-22T05:05:17.090Z,0.35
2023-01-22T05:06:17.087Z,0.36
2023-01-22T05:07:17.096Z,0.37
2023-01-22T05:08:17.106Z,0.39
2023-01-22T05:09:17.120Z,0.39
2023-01-22T05:10:17.386Z,0.40
2023-01-22T05:11:17.138Z,0.41
2023-01-22T05:12:17.146Z,0.41
2023-01-22T05:13:17.155Z,0.42
2023-01-22T05:14:17.161Z,0.41
2023-01-22T05:15:23.926Z,0.41
2023-01-22T05:16:17.192Z,0.40
2023-01-22T05:17:17.204Z,0.40
2023-01-22T05:18:17.217Z,0.40
2023-01-22T05:19:17.219Z,0.38
2023-01-22T05:20:17.488Z,0.38
2023-01-22T05:21:17.249Z,0.37
2023-01-22T05:22:17.268Z,0.35
2023-01-22T05:23:17.277Z,0.35
2023-01-22T05:24:17.282Z,0.36
2023-01-22T05:25:17.297Z,0.37
2023-01-22T05:26:17.309Z,0.38
2023-01-22T05:27:17.319Z,0.39
2023-01-22T05:28:17.321Z,0.39
2023-01-22T05:29:17.322Z,0.39
2023-01-22T05:30:17.575Z,0.39
2023-01-22T05:31:17.425Z,0.39
2023-01-22T05:32:17.361Z,0.40
2023-01-22T05:33:17.373Z,0.42
2023-01-22T05:34:17.381Z,0.44
2023-01-22T05:35:17.385Z,0.45
2023-01-22T05:36:17.399Z,0.46
2023-01-22T05:37:17.446Z,0.46
2023-01-22T05:38:17.430Z,0.44
2023-01-22T05:39:17.430Z,0.46
2023-01-22T05:40:17.695Z,0.46
2023-01-22T05:41:17.451Z,0.47
2023-01-22T05:42:17.456Z,0.49
2023-01-22T05:43:17.468Z,0.49
2023-01-22T05:44:17.468Z,0.50
2023-01-22T05:45:17.488Z,0.50
2023-01-22T05:46:17.499Z,0.51
2023-01-22T05:47:17.501Z,0.49
2023-01-22T05:48:17.505Z,0.47
2023-01-22T05:49:17.517Z,0.45
2023-01-22T05:50:17.936Z,0.44
2023-01-22T05:51:17.569Z,0.45
2023-01-22T05:52:17.552Z,0.46
2023-01-22T05:53:17.562Z,0.49
2023-01-22T05:54:17.581Z,0.49
2023-01-22T05:55:17.584Z,0.51
2023-01-22T05:56:17.587Z,0.52
2023-01-22T05:57:17.595Z,0.50
2023-01-22T05:58:17.600Z,0.49
2023-01-22T05:59:17.610Z,0.49
2023-01-22T06:00:17.858Z,0.48
2023-01-22T06:01:17.629Z,0.49
2023-01-22T06:02:17.669Z,0.49
2023-01-22T06:03:17.678Z,0.51
2023-01-22T06:04:17.653Z,0.51
2023-01-22T06:05:17.733Z,0.52
2023-01-22T06:06:17.683Z,0.53
2023-01-22T06:07:17.700Z,0.53
2023-01-22T06:08:17.702Z,0.52
2023-01-22T06:09:17.711Z,0.54
2023-01-22T06:10:17.953Z,0.56
2023-01-22T06:11:17.737Z,0.56
2023-01-22T06:12:17.744Z,0.56
2023-01-22T06:13:17.757Z,0.55
2023-01-22T06:14:17.760Z,0.53
2023-01-22T06:15:17.805Z,0.53
2023-01-22T06:16:17.839Z,0.54
2023-01-22T06:17:17.806Z,0.57
2023-01-22T06:18:17.808Z,0.58
2023-01-22T06:19:17.815Z,0.59
2023-01-22T06:20:18.100Z,0.59
2023-01-22T06:21:17.838Z,0.60
2023-01-22T06:22:17.835Z,0.60
2023-01-22T06:23:17.846Z,0.60
2023-01-22T06:24:17.867Z,0.61
2023-01-22T06:25:17.875Z,0.61
2023-01-22T06:26:17.877Z,0.62
2023-01-22T06:27:17.892Z,0.63
2023-01-22T06:28:17.891Z,0.63
2023-01-22T06:29:17.904Z,0.63
2023-01-22T06:30:18.188Z,0.62
2023-01-22T06:31:18.040Z,0.64
2023-01-22T06:32:17.942Z,0.66
2023-01-22T06:33:17.942Z,0.64
2023-01-22T06:34:17.954Z,0.63
2023-01-22T06:35:17.974Z,0.67
2023-01-22T06:36:17.981Z,0.67
2023-01-22T06:37:17.999Z,0.67
2023-01-22T06:38:18.009Z,0.70
2023-01-22T06:39:18.023Z,0.69
2023-01-22T06:40:18.292Z,0.69
2023-01-22T06:41:18.050Z,0.69
2023-01-22T06:42:18.063Z,0.69
2023-01-22T06:43:18.171Z,0.70
2023-01-22T06:44:18.077Z,0.69
2023-01-22T06:45:18.087Z,0.68
2023-01-22T06:46:18.124Z,0.69
2023-01-22T06:47:18.110Z,0.69
2023-01-22T06:48:18.123Z,0.71
2023-01-22T06:49:18.140Z,0.70
2023-01-22T06:50:18.341Z,0.71
2023-01-22T06:51:18.185Z,0.70
2023-01-22T06:52:18.158Z,0.68
2023-01-22T06:53:18.163Z,0.71
2023-01-22T06:54:18.171Z,0.72
2023-01-22T06:55:18.192Z,0.73
2023-01-22T06:56:18.190Z,0.75
2023-01-22T06:57:18.200Z,0.76
2023-01-22T06:58:18.211Z,0.77
2023-01-22T06:59:18.221Z,0.78
2023-01-22T07:00:18.553Z,0.78
2023-01-22T07:01:18.288Z,0.79
2023-01-22T07:02:18.265Z,0.79
2023-01-22T07:03:18.303Z,0.78
2023-01-22T07:04:18.268Z,0.79
2023-01-22T07:05:18.267Z,0.80
2023-01-22T07:06:18.288Z,0.79
2023-01-22T07:07:18.301Z,0.77
2023-01-22T07:08:18.320Z,0.76
2023-01-22T07:09:18.320Z,0.76
2023-01-22T07:10:18.505Z,0.74
2023-01-22T07:11:18.340Z,0.74
2023-01-22T07:12:18.340Z,0.75
2023-01-22T07:13:18.380Z,0.76
2023-01-22T07:14:26.004Z,0.77
2023-01-22T07:15:18.374Z,0.76
2023-01-22T07:16:18.448Z,0.76
2023-01-22T07:17:18.410Z,0.75
2023-01-22T07:18:18.417Z,0.76
2023-01-22T07:19:18.423Z,0.76
2023-01-22T07:20:18.699Z,0.78
2023-01-22T07:21:18.450Z,0.75
2023-01-22T07:22:18.461Z,0.77
2023-01-22T07:23:18.467Z,0.77
2023-01-22T07:24:18.483Z,0.78
2023-01-22T07:25:18.481Z,0.79
2023-01-22T07:26:18.486Z,0.82
2023-01-22T07:27:18.500Z,0.83
2023-01-22T07:28:18.514Z,0.85
2023-01-22T07:29:18.513Z,0.88
2023-01-22T07:30:18.824Z,0.86
2023-01-22T07:31:18.569Z,0.84
2023-01-22T07:32:18.548Z,0.84
2023-01-22T07:33:18.583Z,0.84
2023-01-22T07:34:18.578Z,0.86
2023-01-22T07:35:18.578Z,0.85
2023-01-22T07:36:18.590Z,0.84
2023-01-22T07:37:18.606Z,0.82
2023-01-22T07:38:18.614Z,0.83
2023-01-22T07:39:18.620Z,0.82
2023-01-22T07:40:18.849Z,0.83
2023-01-22T07:41:25.727Z,0.82
2023-01-22T07:42:18.696Z,0.84
2023-01-22T07:43:18.657Z,0.85
2023-01-22T07:44:18.679Z,0.89
2023-01-22T07:45:18.690Z,0.88
2023-01-22T07:46:18.715Z,0.88
2023-01-22T07:47:18.716Z,0.88
2023-01-22T07:48:18.730Z,0.89
2023-01-22T07:49:18.739Z,0.90
2023-01-22T07:50:19.010Z,0.91
2023-01-22T07:51:18.807Z,0.92
2023-01-22T07:52:18.767Z,0.91
2023-01-22T07:53:18.775Z,0.92
2023-01-22T07:54:18.781Z,0.93
2023-01-22T07:55:18.796Z,0.92
2023-01-22T07:56:18.807Z,0.92
2023-01-22T07:57:18.812Z,0.95
2023-01-22T07:58:18.824Z,0.96
2023-01-22T07:59:18.838Z,0.98
2023-01-22T08:00:18.995Z,1.02
2023-01-22T08:01:18.869Z,1.02
2023-01-22T08:02:18.895Z,1.03
2023-01-22T08:03:18.891Z,1.03
2023-01-22T08:04:18.910Z,1.06
2023-01-22T08:05:18.915Z,1.05
2023-01-22T08:06:18.920Z,1.06
2023-01-22T08:07:18.941Z,1.08
2023-01-22T08:08:18.953Z,1.08
2023-01-22T08:09:18.968Z,1.08
2023-01-22T08:10:19.285Z,1.05
2023-01-22T08:11:18.993Z,1.06
2023-01-22T08:12:19.012Z,1.06
2023-01-22T08:13:19.027Z,1.07
2023-01-22T08:14:19.031Z,1.07
2023-01-22T08:15:19.036Z,1.09
2023-01-22T08:16:19.111Z,1.10
2023-01-22T08:17:19.062Z,1.10
2023-01-22T08:18:20.449Z,1.12
2023-01-22T08:19:19.077Z,1.10
2023-01-22T08:20:19.427Z,1.10
2023-01-22T08:21:19.100Z,1.10
2023-01-22T08:22:19.105Z,1.11
2023-01-22T08:23:20.625Z,1.10
2023-01-22T08:24:19.134Z,1.09
2023-01-22T08:25:19.136Z,1.07
2023-01-22T08:26:19.168Z,1.07
2023-01-22T08:27:19.165Z,1.08
2023-01-22T08:28:19.177Z,1.08
2023-01-22T08:29:19.189Z,1.10
2023-01-22T08:30:19.472Z,1.13
2023-01-22T08:31:27.283Z,1.13
2023-01-22T08:32:19.308Z,1.16
2023-01-22T08:33:19.234Z,1.17
2023-01-22T08:34:19.241Z,1.17
2023-01-22T08:35:19.802Z,1.17
2023-01-22T08:36:19.264Z,1.17
2023-01-22T08:37:19.278Z,1.16
2023-01-22T08:38:19.290Z,1.18
2023-01-22T08:39:19.314Z,1.18
2023-01-22T08:40:19.532Z,1.22
2023-01-22T08:41:19.318Z,1.21
2023-01-22T08:42:19.328Z,1.22
2023-01-22T08:43:19.343Z,1.22
2023-01-22T08:44:19.360Z,1.21
2023-01-22T08:45:19.368Z,1.21
2023-01-22T08:46:19.379Z,1.19
2023-01-22T08:47:19.380Z,1.19
2023-01-22T08:48:19.389Z,1.19
2023-01-22T08:49:19.402Z,1.22
2023-01-22T08:50:19.885Z,1.21
2023-01-22T08:51:19.485Z,1.22
2023-01-22T08:52:19.430Z,1.26
2023-01-22T08:53:19.440Z,1.26
2023-01-22T08:54:19.449Z,1.28
2023-01-22T08:55:19.454Z,1.29
2023-01-22T08:56:19.457Z,1.30
2023-01-22T08:57:19.476Z,1.31
2023-01-22T08:58:19.477Z,1.29
2023-01-22T08:59:19.497Z,1.31
2023-01-22T09:00:19.769Z,1.32
2023-01-22T09:01:19.604Z,1.32
2023-01-22T09:02:19.613Z,1.32
2023-01-22T09:03:19.531Z,1.33
2023-01-22T09:04:19.542Z,1.33
2023-01-22T09:05:19.541Z,1.36
2023-01-22T09:06:19.561Z,1.38
2023-01-22T09:07:19.562Z,1.39
2023-01-22T09:08:19.573Z,1.40
2023-01-22T09:09:19.593Z,1.40
2023-01-22T09:10:21.636Z,1.40
2023-01-22T09:11:19.612Z,1.42
2023-01-22T09:12:19.616Z,1.41
2023-01-22T09:13:19.628Z,1.43
2023-01-22T09:14:19.635Z,1.44
2023-01-22T09:15:19.655Z,1.44
2023-01-22T09:16:19.729Z,1.43
2023-01-22T09:17:19.683Z,1.42
2023-01-22T09:18:19.693Z,1.42
2023-01-22T09:19:19.703Z,1.42
2023-01-22T09:20:20.012Z,1.43
2023-01-22T09:21:19.756Z,1.43
2023-01-22T09:22:19.745Z,1.43
2023-01-22T09:23:19.762Z,1.41
2023-01-22T09:24:19.773Z,1.42
2023-01-22T09:25:19.789Z,1.42
2023-01-22T09:26:19.806Z,1.42
2023-01-22T09:27:19.821Z,1.42
2023-01-22T09:28:19.839Z,1.44
2023-01-22T09:29:19.847Z,1.43
2023-01-22T09:30:20.427Z,1.43
2023-01-22T09:31:19.874Z,1.44
2023-01-22T09:32:19.885Z,1.45
2023-01-22T09:33:19.901Z,1.46
2023-01-22T09:34:19.908Z,1.46
2023-01-22T09:35:19.922Z,1.46
2023-01-22T09:36:19.938Z,1.49
2023-01-22T09:37:19.945Z,1.48
2023-01-22T09:38:19.949Z,1.49
2023-01-22T09:39:19.968Z,1.50
2023-01-22T09:40:20.284Z,1.49
2023-01-22T09:41:19.985Z,1.49
2023-01-22T09:42:19.994Z,1.51
2023-01-22T09:43:19.999Z,1.53
2023-01-22T09:44:20.012Z,1.54
2023-01-22T09:45:20.022Z,1.55
2023-01-22T09:46:20.139Z,1.55
2023-01-22T09:47:20.036Z,1.55
2023-01-22T09:48:20.051Z,1.56
2023-01-22T09:49:20.063Z,1.57
2023-01-22T09:50:20.418Z,1.59
2023-01-22T09:51:20.096Z,1.61
2023-01-22T09:52:20.088Z,1.62
2023-01-22T09:53:20.101Z,1.66
2023-01-22T09:54:20.114Z,1.67
2023-01-22T09:55:20.144Z,1.68
2023-01-22T09:56:20.136Z,1.70
2023-01-22T09:57:31.034Z,1.72
2023-01-22T09:58:20.154Z,1.73
2023-01-22T09:59:20.179Z,1.76
2023-01-22T10:00:20.456Z,1.78
2023-01-22T10:01:20.248Z,1.82
2023-01-22T10:02:20.251Z,1.82
2023-01-22T10:03:22.590Z,1.84
2023-01-22T10:04:20.237Z,1.86
2023-01-22T10:05:20.244Z,1.88
2023-01-22T10:06:20.249Z,1.92
2023-01-22T10:07:20.245Z,1.94
2023-01-22T10:08:20.278Z,1.95
2023-01-22T10:09:20.266Z,1.97
2023-01-22T10:10:20.651Z,1.96
2023-01-22T10:11:20.290Z,1.99
2023-01-22T10:12:20.310Z,2.00
2023-01-22T10:13:20.314Z,2.04
2023-01-22T10:14:20.324Z,2.06
2023-01-22T10:15:20.330Z,2.09
2023-01-22T10:16:20.401Z,2.10
2023-01-22T10:17:20.369Z,2.08
2023-01-22T10:18:20.371Z,2.08
2023-01-22T10:19:20.378Z,2.08
2023-01-22T10:20:20.614Z,2.08
2023-01-22T10:21:20.407Z,2.08
2023-01-22T10:22:20.415Z,2.09
2023-01-22T10:23:20.432Z,2.11
2023-01-22T10:24:20.441Z,2.12
2023-01-22T10:25:20.460Z,2.11
2023-01-22T10:26:20.460Z,2.10
2023-01-22T10:27:20.467Z,2.09
2023-01-22T10:28:20.472Z,2.09
2023-01-22T10:29:20.508Z,2.10
2023-01-22T10:30:20.712Z,2.11
2023-01-22T10:31:20.624Z,2.14
2023-01-22T10:32:20.521Z,2.16
2023-01-22T10:33:20.531Z,2.18
2023-01-22T10:34:20.522Z,2.20
2023-01-22T10:35:20.548Z,2.20
2023-01-22T10:36:20.571Z,2.18
2023-01-22T10:37:20.567Z,2.19
2023-01-22T10:38:20.567Z,2.21
2023-01-22T10:39:20.586Z,2.23
2023-01-22T10:40:20.750Z,2.24
2023-01-22T10:41:20.610Z,2.25
2023-01-22T10:42:20.618Z,2.27
2023-01-22T10:43:20.631Z,2.28
2023-01-22T10:44:20.663Z,2.30
2023-01-22T10:45:20.665Z,2.30
2023-01-22T10:46:20.785Z,2.29
2023-01-22T10:47:20.845Z,2.27
2023-01-22T10:48:20.699Z,2.28
2023-01-22T10:49:20.725Z,2.31
2023-01-22T10:50:21.004Z,2.32
2023-01-22T10:51:20.808Z,2.34
2023-01-22T10:52:20.749Z,2.34
2023-01-22T10:53:20.760Z,2.36
2023-01-22T10:54:20.767Z,2.38
2023-01-22T10:55:20.791Z,2.40
2023-01-22T10:56:20.796Z,2.45
2023-01-22T10:57:20.816Z,2.43
2023-01-22T10:58:20.818Z,2.41
2023-01-22T10:59:20.833Z,2.40
2023-01-22T11:00:21.083Z,2.39
2023-01-22T11:01:20.878Z,2.37
2023-01-22T11:02:20.905Z,2.36
2023-01-22T11:03:20.872Z,2.36
2023-01-22T11:04:20.884Z,2.33
2023-01-22T11:05:20.887Z,2.31
2023-01-22T11:06:20.893Z,2.32
2023-01-22T11:07:20.912Z,2.32
2023-01-22T11:08:20.923Z,2.33
2023-01-22T11:09:20.940Z,2.33
2023-01-22T11:10:21.236Z,2.33
2023-01-22T11:11:20.969Z,2.36
2023-01-22T11:12:20.979Z,2.38
2023-01-22T11:13:21.000Z,2.38
2023-01-22T11:14:20.999Z,2.41
2023-01-22T11:15:21.018Z,2.39
2023-01-22T11:16:21.059Z,2.38
2023-01-22T11:17:21.042Z,2.35
2023-01-22T11:18:21.061Z,2.34
2023-01-22T11:19:32.532Z,2.35
2023-01-22T11:20:21.522Z,2.34
2023-01-22T11:21:21.112Z,2.31
2023-01-22T11:22:21.115Z,2.33
2023-01-22T11:23:21.128Z,2.35
2023-01-22T11:24:21.142Z,2.38
2023-01-22T11:25:21.152Z,2.39
2023-01-22T11:26:21.161Z,2.41
2023-01-22T11:27:21.179Z,2.40
2023-01-22T11:28:21.188Z,2.39
2023-01-22T11:29:21.202Z,2.40
2023-01-22T11:30:21.586Z,2.38
2023-01-22T11:31:21.330Z,2.38
2023-01-22T11:32:21.248Z,2.39
2023-01-22T11:33:21.259Z,2.41
2023-01-22T11:34:21.274Z,2.45
2023-01-22T11:35:21.282Z,2.47
2023-01-22T11:36:21.297Z,2.48
2023-01-22T11:37:21.309Z,2.50
2023-01-22T11:38:21.319Z,2.54
2023-01-22T11:39:21.339Z,2.55
2023-01-22T11:40:21.844Z,2.56
2023-01-22T11:41:21.368Z,2.56
2023-01-22T11:42:21.380Z,2.57
2023-01-22T11:43:21.407Z,2.57
2023-01-22T11:44:21.438Z,2.59
2023-01-22T11:45:21.436Z,2.58
2023-01-22T11:46:21.586Z,2.59
2023-01-22T11:47:21.449Z,2.58
2023-01-22T11:48:21.465Z,2.57
2023-01-22T11:49:21.480Z,2.56
2023-01-22T11:50:21.728Z,2.56
2023-01-22T11:51:21.563Z,2.59
2023-01-22T11:52:21.512Z,2.58
2023-01-22T11:53:21.534Z,2.58
2023-01-22T11:54:21.549Z,2.59
2023-01-22T11:55:21.566Z,2.59
2023-01-22T11:56:21.590Z,2.61
2023-01-22T11:57:21.610Z,2.61
2023-01-22T11:58:21.619Z,2.62
2023-01-22T11:59:21.633Z,2.62
2023-01-22T12:00:21.922Z,2.64
2023-01-22T12:01:21.671Z,2.66
2023-01-22T12:02:21.729Z,2.67
2023-01-22T12:03:21.698Z,2.69
2023-01-22T12:04:21.725Z,2.65
2023-01-22T12:05:21.739Z,2.65
2023-01-22T12:06:21.741Z,2.65
2023-01-22T12:07:21.757Z,2.66
2023-01-22T12:08:21.778Z,2.67
2023-01-22T12:09:21.790Z,2.69
2023-01-22T12:10:21.964Z,2.70
2023-01-22T12:11:21.811Z,2.73
2023-01-22T12:12:21.831Z,2.76
2023-01-22T12:13:21.838Z,2.80
2023-01-22T12:14:21.870Z,2.83
2023-01-22T12:15:21.854Z,2.90
2023-01-22T12:16:21.924Z,2.90
2023-01-22T12:17:21.872Z,2.90
2023-01-22T12:18:21.886Z,2.91
2023-01-22T12:19:21.898Z,2.92
2023-01-22T12:20:21.900Z,2.92
2023-01-22T12:21:22.003Z,2.95
2023-01-22T12:22:21.922Z,2.98
2023-01-22T12:23:21.927Z,3.00
2023-01-22T12:24:21.943Z,3.00
2023-01-22T12:25:21.946Z,3.03
2023-01-22T12:26:21.958Z,3.07
2023-01-22T12:27:21.969Z,3.07
2023-01-22T12:28:21.984Z,3.08
2023-01-22T12:29:21.991Z,3.10
2023-01-22T12:30:22.005Z,3.09
2023-01-22T12:31:22.142Z,3.12
2023-01-22T12:32:22.032Z,3.14
2023-01-22T12:33:22.075Z,3.16
2023-01-22T12:34:22.046Z,3.17
2023-01-22T12:35:22.048Z,3.20
2023-01-22T12:36:22.080Z,3.22
2023-01-22T12:37:22.094Z,3.24
2023-01-22T12:38:22.089Z,3.25
2023-01-22T12:39:22.102Z,3.28
2023-01-22T12:40:22.112Z,3.30
2023-01-22T12:41:22.127Z,3.33
2023-01-22T12:42:22.135Z,3.37
2023-01-22T12:43:22.141Z,3.39
2023-01-22T12:44:22.150Z,3.39
2023-01-22T12:45:22.175Z,3.39
2023-01-22T12:46:22.228Z,3.39
2023-01-22T12:47:22.180Z,3.39
2023-01-22T12:48:22.196Z,3.37
2023-01-22T12:49:22.204Z,3.35
2023-01-22T12:50:22.442Z,3.34
2023-01-22T12:51:22.268Z,3.33
2023-01-22T12:52:22.229Z,3.33
2023-01-22T12:53:22.234Z,3.33
2023-01-22T12:54:22.251Z,3.34
2023-01-22T12:55:22.247Z,3.36
2023-01-22T12:56:22.264Z,3.35
2023-01-22T12:57:22.268Z,3.34
2023-01-22T12:58:22.286Z,3.36
2023-01-22T12:59:22.294Z,3.36
2023-01-22T13:00:22.313Z,3.39
2023-01-22T13:01:22.332Z,3.36
2023-01-22T13:02:22.462Z,3.37
2023-01-22T13:03:30.802Z,3.39
2023-01-22T13:04:22.374Z,3.40
2023-01-22T13:05:22.392Z,3.42
2023-01-22T13:06:22.397Z,3.47
2023-01-22T13:07:22.414Z,3.47
2023-01-22T13:08:22.474Z,3.50
2023-01-22T13:09:22.435Z,3.48
2023-01-22T13:10:22.451Z,3.50
2023-01-22T13:11:22.449Z,3.48
2023-01-22T13:12:22.467Z,3.48
2023-01-22T13:13:22.487Z,3.49
2023-01-22T13:14:22.510Z,3.51
2023-01-22T13:15:22.538Z,3.54
2023-01-22T13:16:22.579Z,3.55
2023-01-22T13:17:22.558Z,3.58
2023-01-22T13:18:22.577Z,3.59
2023-01-22T13:19:22.595Z,3.60
2023-01-22T13:20:22.615Z,3.60
2023-01-22T13:21:22.618Z,3.61
2023-01-22T13:22:22.653Z,3.63
2023-01-22T13:23:22.646Z,3.64
2023-01-22T13:24:22.685Z,3.66
2023-01-22T13:25:22.665Z,3.67
2023-01-22T13:26:22.695Z,3.68
2023-01-22T13:27:22.704Z,3.69
2023-01-22T13:28:22.707Z,3.69
2023-01-22T13:29:22.760Z,3.71
2023-01-22T13:30:22.734Z,3.71
2023-01-22T13:31:22.960Z,3.69
2023-01-22T13:32:22.798Z,3.69
2023-01-22T13:33:22.775Z,3.68
2023-01-22T13:34:22.787Z,3.68
2023-01-22T13:35:22.804Z,3.67